Time;durP1;ratioP1;P1;durP2;ratioP2;P2;SDS_P1;SDS_P2;PMS_P1;PMS_P2;Temp;Humidity;BMP_temperature;BMP_pressure;BME280_temperature;BME280_humidity;BME280_pressure;Samples;Min_cycle;Max_cycle;Signal;HPM_P1;HPM_P2
2021/07/19 04:31:25;;;;;;;5.50;4.47;;;15.80;99.90;;;;;;5750591;23;20825;-78
2021/07/19 04:33:50;;;;;;;8.63;4.37;;;15.90;99.90;;;;;;4952858;29;20432;-77
2021/07/19 04:36:17;;;;;;;5.17;4.50;;;16.00;99.90;;;;;;4953499;29;20617;-78
2021/07/19 04:38:44;;;;;;;3.90;3.60;;;16.00;99.90;;;;;;4949178;28;20267;-78
2021/07/19 04:41:10;;;;;;;5.33;4.07;;;16.00;99.90;;;;;;4948091;28;20469;-77
2021/07/19 04:43:35;;;;;;;7.73;4.10;;;16.10;99.90;;;;;;4953021;29;20416;-78
2021/07/19 04:46:01;;;;;;;4.40;4.07;;;16.20;99.90;;;;;;4949198;29;20688;-79
2021/07/19 04:48:27;;;;;;;7.30;3.77;;;16.30;99.90;;;;;;4954648;28;20656;-76
2021/07/19 04:50:52;;;;;;;6.80;4.10;;;16.30;99.90;;;;;;4953640;28;20250;-78
2021/07/19 04:53:18;;;;;;;8.60;4.63;;;16.50;99.90;;;;;;4954424;28;20230;-78
2021/07/19 04:55:48;;;;;;;5.60;4.17;;;16.50;99.90;;;;;;4955051;29;20646;-78
2021/07/19 04:58:16;;;;;;;5.83;4.73;;;16.70;99.90;;;;;;4954857;28;20196;-76
2021/07/19 05:00:45;;;;;;;6.43;5.47;;;16.90;99.90;;;;;;4952602;28;20427;-75
2021/07/19 05:03:13;;;;;;;5.50;4.67;;;17.00;99.90;;;;;;4952306;29;20435;-77
2021/07/19 05:05:40;;;;;;;6.20;4.50;;;17.10;99.90;;;;;;4953429;29;20563;-77
2021/07/19 05:08:07;;;;;;;7.93;5.10;;;17.20;99.90;;;;;;4954584;28;20427;-75
2021/07/19 05:10:34;;;;;;;6.97;4.93;;;17.40;99.90;;;;;;4953672;28;20425;-71
2021/07/19 05:13:00;;;;;;;5.03;4.40;;;17.60;99.90;;;;;;4941031;28;20467;-73
2021/07/19 05:15:26;;;;;;;6.97;5.23;;;17.70;99.90;;;;;;4934709;29;20413;-72
2021/07/19 05:17:52;;;;;;;8.00;4.83;;;17.90;99.90;;;;;;4933946;29;20429;-72
2021/07/19 05:20:22;;;;;;;7.50;5.33;;;18.00;99.90;;;;;;4934630;29;20196;-73
2021/07/19 05:22:52;;;;;;;8.27;4.30;;;18.10;99.90;;;;;;4933439;29;20224;-73
2021/07/19 05:25:27;;;;;;;5.23;3.73;;;18.20;99.90;;;;;;4934168;29;20532;-72
2021/07/19 05:28:12;;;;;;;5.73;4.07;;;18.30;99.90;;;;;;4933792;29;20461;-71
2021/07/19 05:30:43;;;;;;;4.57;3.97;;;18.50;99.90;;;;;;4934505;29;20432;-73
2021/07/19 05:33:10;;;;;;;4.97;4.50;;;18.60;99.90;;;;;;4933960;29;20428;-72
2021/07/19 05:35:36;;;;;;;5.13;4.73;;;18.80;99.90;;;;;;4934720;29;20782;-71
2021/07/19 05:38:03;;;;;;;4.50;3.73;;;19.00;99.90;;;;;;4934361;29;20418;-73
2021/07/19 05:40:31;;;;;;;5.20;3.60;;;19.30;99.90;;;;;;4933179;29;20926;-72
2021/07/19 05:42:58;;;;;;;9.87;3.67;;;19.70;99.90;;;;;;4932714;29;20424;-72
2021/07/19 05:45:23;;;;;;;6.27;3.27;;;20.30;99.90;;;;;;4934643;29;20461;-73
2021/07/19 05:47:49;;;;;;;5.83;3.73;;;20.80;99.90;;;;;;4935155;29;20434;-73
2021/07/19 05:50:14;;;;;;;5.07;4.00;;;21.30;99.90;;;;;;4933859;29;20212;-72
2021/07/19 05:52:40;;;;;;;5.77;4.17;;;21.60;99.90;;;;;;4934259;29;20567;-72
2021/07/19 05:55:07;;;;;;;5.03;4.13;;;21.90;99.90;;;;;;4934389;29;20218;-73
2021/07/19 05:57:33;;;;;;;3.37;3.07;;;22.20;99.90;;;;;;4934000;29;20607;-73
2021/07/19 05:59:59;;;;;;;6.20;4.03;;;22.50;99.90;;;;;;4934257;29;20438;-73
2021/07/19 06:02:26;;;;;;;6.27;3.87;;;22.70;99.90;;;;;;4934211;29;20445;-71
2021/07/19 06:04:52;;;;;;;3.57;3.17;;;22.90;99.90;;;;;;4933871;29;20229;-71
2021/07/19 06:07:18;;;;;;;6.53;3.90;;;23.00;99.90;;;;;;4933786;29;20418;-74
2021/07/19 06:09:43;;;;;;;3.97;3.20;;;23.20;99.90;;;;;;4932970;29;20429;-72
2021/07/19 06:12:10;;;;;;;8.60;3.63;;;23.20;99.90;;;;;;4934129;29;20252;-73
2021/07/19 06:14:36;;;;;;;6.83;3.30;;;23.20;99.90;;;;;;4934114;29;20225;-73
2021/07/19 06:17:02;;;;;;;4.13;3.73;;;23.50;99.90;;;;;;4933642;29;20409;-73
2021/07/19 06:19:28;;;;;;;3.67;3.40;;;23.60;99.90;;;;;;4934023;29;20508;-73
2021/07/19 06:21:53;;;;;;;7.90;3.40;;;23.80;99.90;;;;;;4933118;29;20197;-71
2021/07/19 06:24:19;;;;;;;6.20;3.40;;;24.00;99.90;;;;;;4933424;29;20580;-74
2021/07/19 06:26:44;;;;;;;4.47;3.70;;;24.10;99.90;;;;;;4934395;29;20268;-73
2021/07/19 06:29:10;;;;;;;5.77;3.70;;;24.40;99.90;;;;;;4933423;29;20182;-73
2021/07/19 06:31:35;;;;;;;7.33;3.30;;;24.50;99.90;;;;;;4933888;29;20220;-73
2021/07/19 06:34:01;;;;;;;3.93;3.63;;;24.60;99.90;;;;;;4933504;29;20178;-72
2021/07/19 06:36:27;;;;;;;5.60;3.33;;;24.80;99.90;;;;;;4933651;29;20189;-71
2021/07/19 06:38:52;;;;;;;5.63;3.53;;;24.90;99.90;;;;;;4933950;29;20177;-73
2021/07/19 06:41:18;;;;;;;4.00;3.30;;;24.70;99.90;;;;;;4933197;29;20713;-72
2021/07/19 06:43:43;;;;;;;11.77;3.90;;;24.90;99.90;;;;;;4932969;29;20185;-72
2021/07/19 06:46:09;;;;;;;6.83;3.57;;;25.20;99.90;;;;;;4933697;29;20205;-75
2021/07/19 06:48:35;;;;;;;5.33;3.70;;;25.30;99.90;;;;;;4933387;29;20666;-73
2021/07/19 06:51:01;;;;;;;4.47;4.07;;;25.60;99.90;;;;;;4933090;29;20189;-73
2021/07/19 06:53:28;;;;;;;4.80;3.80;;;25.80;99.90;;;;;;4931706;29;20927;-74
2021/07/19 06:55:54;;;;;;;3.87;3.40;;;25.80;99.90;;;;;;4933447;29;20186;-72
2021/07/19 06:58:19;;;;;;;6.03;4.10;;;26.10;99.90;;;;;;4933833;29;20423;-74
2021/07/19 07:00:45;;;;;;;4.20;3.70;;;26.30;99.90;;;;;;4933425;29;20662;-73
2021/07/19 07:03:10;;;;;;;5.73;3.90;;;26.50;99.90;;;;;;4932933;29;20181;-71
2021/07/19 07:05:36;;;;;;;3.73;3.20;;;26.60;99.90;;;;;;4932764;29;20197;-73
2021/07/19 07:08:02;;;;;;;3.27;2.97;;;26.60;99.90;;;;;;4933426;29;20213;-72
2021/07/19 07:10:27;;;;;;;4.57;4.17;;;26.80;99.90;;;;;;4932240;29;20268;-71
2021/07/19 07:12:53;;;;;;;5.43;3.97;;;26.80;99.90;;;;;;4933024;29;20190;-73
2021/07/19 07:15:18;;;;;;;3.97;3.60;;;26.80;99.90;;;;;;4933250;29;20186;-73
2021/07/19 07:17:44;;;;;;;4.70;3.80;;;27.00;99.90;;;;;;4933570;29;20636;-73
2021/07/19 07:20:11;;;;;;;6.47;3.20;;;27.20;99.90;;;;;;4933133;29;20228;-73
2021/07/19 07:22:37;;;;;;;4.60;3.27;;;27.20;99.90;;;;;;4932752;29;20197;-73
2021/07/19 07:25:03;;;;;;;4.70;3.90;;;27.40;99.90;;;;;;4932351;29;20448;-73
2021/07/19 07:27:29;;;;;;;6.37;3.30;;;27.50;99.90;;;;;;4933084;29;20182;-74
2021/07/19 07:29:55;;;;;;;5.10;3.50;;;27.70;99.90;;;;;;4932174;29;20420;-72
2021/07/19 07:32:20;;;;;;;3.57;3.27;;;27.90;99.90;;;;;;4932711;29;20704;-70
2021/07/19 07:34:45;;;;;;;5.83;4.10;;;27.90;99.90;;;;;;4933078;29;20228;-74
2021/07/19 07:37:12;;;;;;;5.10;3.63;;;27.90;99.90;;;;;;4933305;29;20236;-72
2021/07/19 07:39:39;;;;;;;3.27;2.97;;;27.90;99.90;;;;;;4932936;29;20655;-74
2021/07/19 07:42:05;;;;;;;4.10;3.57;;;27.70;99.90;;;;;;4931653;29;20444;-73
2021/07/19 07:44:30;;;;;;;4.20;3.80;;;27.80;99.90;;;;;;4933446;29;20464;-70
2021/07/19 07:46:56;;;;;;;5.00;4.53;;;28.00;99.90;;;;;;4933085;29;20181;-73
2021/07/19 07:49:22;;;;;;;11.83;3.53;;;27.90;99.90;;;;;;4933566;29;20214;-70
2021/07/19 07:51:48;;;;;;;4.83;4.13;;;27.60;99.90;;;;;;4933088;29;20192;-73
2021/07/19 07:54:16;;;;;;;5.20;3.67;;;27.40;99.90;;;;;;4931767;29;20224;-70
2021/07/19 07:56:41;;;;;;;3.37;3.07;;;27.70;99.90;;;;;;4933194;29;20503;-72
2021/07/19 07:59:07;;;;;;;4.73;3.90;;;28.00;99.90;;;;;;4932996;29;20885;-70
2021/07/19 08:01:32;;;;;;;5.43;3.90;;;28.30;99.90;;;;;;4931689;29;20694;-70
2021/07/19 08:03:58;;;;;;;4.20;3.53;;;28.50;99.90;;;;;;4932660;29;20181;-71
2021/07/19 08:06:23;;;;;;;9.10;3.60;;;28.70;99.90;;;;;;4933557;29;20209;-72
2021/07/19 08:08:49;;;;;;;4.20;3.90;;;28.70;99.90;;;;;;4933004;29;20174;-74
2021/07/19 08:11:14;;;;;;;5.70;3.27;;;28.50;99.90;;;;;;4936355;29;20729;-70
2021/07/19 08:13:40;;;;;;;4.87;3.57;;;28.80;99.90;;;;;;4935470;29;20177;-73
2021/07/19 08:16:07;;;;;;;5.80;3.80;;;28.90;99.90;;;;;;4934379;29;20182;-73
2021/07/19 08:18:32;;;;;;;4.03;3.63;;;29.00;99.90;;;;;;4934262;29;20174;-73
2021/07/19 08:20:58;;;;;;;3.77;3.43;;;29.00;99.90;;;;;;4933866;29;20445;-74
2021/07/19 08:23:23;;;;;;;5.50;3.70;;;29.10;99.90;;;;;;4932331;29;20235;-73
2021/07/19 08:25:49;;;;;;;4.37;3.73;;;29.30;99.90;;;;;;4933219;29;20216;-71
2021/07/19 08:28:15;;;;;;;4.97;4.20;;;29.50;99.90;;;;;;4933862;29;20186;-72
2021/07/19 08:30:40;;;;;;;4.23;3.93;;;29.50;99.90;;;;;;4933928;29;20205;-72
2021/07/19 08:33:06;;;;;;;4.97;3.70;;;29.30;99.90;;;;;;4932978;29;20193;-72
2021/07/19 08:35:32;;;;;;;5.30;3.80;;;29.50;99.90;;;;;;4933158;29;20650;-74
2021/07/19 08:37:57;;;;;;;5.60;4.30;;;29.50;99.90;;;;;;4936143;29;20659;-74
2021/07/19 08:40:24;;;;;;;5.37;4.87;;;29.50;99.90;;;;;;4935576;29;20209;-71
2021/07/19 08:42:50;;;;;;;5.73;3.70;;;29.50;99.90;;;;;;4935496;29;20293;-73
2021/07/19 08:45:16;;;;;;;3.37;3.03;;;29.60;99.90;;;;;;4935810;29;20591;-71
2021/07/19 08:47:44;;;;;;;6.80;3.70;;;29.80;99.90;;;;;;4934959;29;20205;-70
2021/07/19 08:50:13;;;;;;;4.00;3.67;;;30.20;99.90;;;;;;4937564;29;20177;-72
2021/07/19 08:52:40;;;;;;;5.30;4.13;;;30.30;99.90;;;;;;4937331;29;20437;-72
2021/07/19 08:55:08;;;;;;;4.57;3.70;;;30.50;99.90;;;;;;4936597;29;20424;-73
2021/07/19 08:57:34;;;;;;;8.60;4.10;;;30.20;99.90;;;;;;4936337;29;20428;-71
2021/07/19 09:00:05;;;;;;;4.43;3.70;;;30.60;99.90;;;;;;4931359;29;20417;-72
2021/07/19 09:02:31;;;;;;;5.80;3.20;;;30.60;99.90;;;;;;4934943;29;20217;-71
2021/07/19 09:04:58;;;;;;;5.70;3.67;;;30.60;99.90;;;;;;4934214;29;20441;-73
2021/07/19 09:07:24;;;;;;;7.13;4.10;;;30.70;99.90;;;;;;4934506;29;20418;-74
2021/07/19 09:09:51;;;;;;;5.23;3.80;;;30.60;99.90;;;;;;4935329;29;20439;-72
2021/07/19 09:12:17;;;;;;;7.73;3.20;;;31.20;99.90;;;;;;4935392;29;20512;-72
2021/07/19 09:14:47;;;;;;;4.33;3.90;;;31.30;99.90;;;;;;4935120;29;20417;-72
2021/07/19 09:17:26;;;;;;;4.53;3.27;;;31.70;99.90;;;;;;4934342;29;20421;-71
2021/07/19 09:19:54;;;;;;;8.50;4.40;;;31.80;99.90;;;;;;4935258;29;20420;-72
2021/07/19 09:22:29;;;;;;;13.40;3.30;;;31.80;99.90;;;;;;4934978;29;20973;-71
2021/07/19 09:25:16;;;;;;;4.57;4.20;;;31.90;99.90;;;;;;4934491;29;20448;-72
2021/07/19 09:27:57;;;;;;;4.30;3.90;;;31.10;99.90;;;;;;4934404;29;20424;-72
2021/07/19 09:30:27;;;;;;;3.83;3.37;;;30.90;99.90;;;;;;4934862;29;20417;-72
2021/07/19 09:33:06;;;;;;;3.43;3.17;;;31.50;99.90;;;;;;4934266;29;20479;-74
2021/07/19 09:35:34;;;;;;;4.50;3.43;;;31.90;99.90;;;;;;4934891;29;20536;-74
2021/07/19 09:38:05;;;;;;;3.33;3.13;;;32.80;99.90;;;;;;4934285;29;20875;-72
2021/07/19 09:40:33;;;;;;;3.73;3.13;;;33.20;99.90;;;;;;4934520;29;20426;-73
2021/07/19 09:42:59;;;;;;;3.73;2.90;;;33.40;99.90;;;;;;4933953;29;20409;-73
2021/07/19 09:45:32;;;;;;;4.60;4.00;;;33.70;99.90;;;;;;4934811;29;20477;-71
2021/07/19 09:48:03;;;;;;;3.57;3.37;;;33.90;99.90;;;;;;4932860;29;20839;-72
2021/07/19 09:50:47;;;;;;;4.07;3.30;;;34.10;99.90;;;;;;4933192;29;21036;-71
2021/07/19 09:53:12;;;;;;;3.60;3.23;;;34.30;99.90;;;;;;4933704;29;20500;-71
2021/07/19 09:55:38;;;;;;;8.67;3.20;;;34.10;99.90;;;;;;4934815;29;20417;-71
2021/07/19 09:58:04;;;;;;;3.57;3.27;;;33.50;99.90;;;;;;4933888;29;20189;-71
2021/07/19 10:00:31;;;;;;;4.13;3.73;;;32.70;99.90;;;;;;4934438;29;20241;-71
2021/07/19 10:02:57;;;;;;;4.10;3.40;;;31.70;99.90;;;;;;4932385;29;20437;-71
2021/07/19 10:05:27;;;;;;;4.87;3.20;;;30.90;99.90;;;;;;4933748;29;20489;-71
2021/07/19 10:07:54;;;;;;;3.40;3.20;;;30.90;99.90;;;;;;4932818;29;20673;-71
2021/07/19 10:10:40;;;;;;;3.40;3.13;;;31.50;99.90;;;;;;4933926;29;20500;-73
2021/07/19 10:13:08;;;;;;;5.43;3.17;;;32.30;99.90;;;;;;4931824;29;20496;-74
2021/07/19 10:15:35;;;;;;;4.47;3.60;;;33.20;99.90;;;;;;4934054;29;20425;-73
2021/07/19 10:18:10;;;;;;;3.13;2.70;;;33.40;99.90;;;;;;4932129;29;20421;-74
2021/07/19 10:20:40;;;;;;;8.70;3.20;;;33.40;99.90;;;;;;4933390;29;20431;-73
2021/07/19 10:23:07;;;;;;;6.63;3.53;;;33.60;99.90;;;;;;4933159;29;20426;-76
2021/07/19 10:25:37;;;;;;;5.07;3.13;;;33.60;99.90;;;;;;4933956;29;20468;-74
2021/07/19 10:28:08;;;;;;;4.20;3.50;;;33.10;99.90;;;;;;4932347;29;20417;-73
2021/07/19 10:30:35;;;;;;;5.87;3.80;;;32.80;99.90;;;;;;4933904;29;20423;-72
2021/07/19 10:33:02;;;;;;;4.37;3.30;;;32.40;99.90;;;;;;4933430;29;20429;-72
2021/07/19 10:35:28;;;;;;;3.40;3.10;;;32.10;99.90;;;;;;4933329;29;20425;-74
2021/07/19 10:38:17;;;;;;;4.80;3.50;;;32.00;99.90;;;;;;4933147;29;20421;-72
2021/07/19 10:40:43;;;;;;;6.30;2.60;;;32.10;99.90;;;;;;4933257;29;20444;-73
2021/07/19 10:43:13;;;;;;;4.07;2.90;;;32.80;99.90;;;;;;4932868;29;20790;-73
2021/07/19 10:45:53;;;;;;;3.53;2.53;;;32.90;99.90;;;;;;4933027;29;20563;-73
2021/07/19 10:48:28;;;;;;;4.87;3.30;;;33.20;99.90;;;;;;4932377;29;20444;-73
2021/07/19 10:50:57;;;;;;;6.90;3.10;;;32.20;99.90;;;;;;4933289;29;20540;-71
2021/07/19 10:53:26;;;;;;;3.80;3.53;;;31.80;99.90;;;;;;4933040;29;20420;-72
2021/07/19 10:56:04;;;;;;;5.23;3.03;;;31.70;99.90;;;;;;4933436;29;20468;-72
2021/07/19 10:58:37;;;;;;;3.40;3.10;;;32.20;99.90;;;;;;4932696;29;20429;-73
2021/07/19 11:01:03;;;;;;;4.87;2.50;;;32.50;99.90;;;;;;4932153;29;20433;-71
2021/07/19 11:03:39;;;;;;;6.90;2.70;;;32.90;99.90;;;;;;4931390;29;20429;-72
2021/07/19 11:06:04;;;;;;;2.70;2.50;;;32.90;99.90;;;;;;4933147;29;20500;-73
2021/07/19 11:08:30;;;;;;;2.30;2.20;;;33.20;99.90;;;;;;4932451;29;20449;-73
2021/07/19 11:10:58;;;;;;;2.80;2.10;;;33.20;99.90;;;;;;4932979;29;20205;-73
2021/07/19 11:13:33;;;;;;;2.70;2.50;;;33.10;99.90;;;;;;4932330;29;20199;-72
2021/07/19 11:16:00;;;;;;;2.43;2.20;;;32.40;99.90;;;;;;4933065;29;20524;-73
2021/07/19 11:18:28;;;;;;;8.87;3.00;;;31.90;99.90;;;;;;4932501;29;20457;-70
2021/07/19 11:20:58;;;;;;;6.27;2.20;;;31.10;99.90;;;;;;4932379;29;20531;-70
2021/07/19 11:23:37;;;;;;;4.10;1.93;;;31.00;99.90;;;;;;4932789;29;20462;-70
2021/07/19 11:26:06;;;;;;;7.03;2.70;;;31.10;99.90;;;;;;4933128;29;20551;-73
2021/07/19 11:28:41;;;;;;;4.43;2.70;;;31.50;99.90;;;;;;4932517;29;20420;-71
2021/07/19 11:31:27;;;;;;;13.53;2.50;;;31.70;99.90;;;;;;4932933;29;20464;-73
2021/07/19 11:34:01;;;;;;;5.10;2.60;;;32.00;99.90;;;;;;4930620;29;20686;-69
2021/07/19 11:36:44;;;;;;;5.00;2.20;;;32.00;99.90;;;;;;4932614;29;20440;-70
2021/07/19 11:39:17;;;;;;;4.43;2.20;;;32.10;99.90;;;;;;4932352;29;20516;-70
2021/07/19 11:41:43;;;;;;;3.17;2.13;;;32.30;99.90;;;;;;4932086;29;20544;-71
2021/07/19 11:44:17;;;;;;;4.80;1.90;;;32.30;99.90;;;;;;4932041;29;20503;-70
2021/07/19 11:46:46;;;;;;;2.30;2.10;;;32.10;99.90;;;;;;4932361;29;20227;-71
2021/07/19 11:49:13;;;;;;;2.73;1.70;;;32.00;99.90;;;;;;4930939;29;21122;-70
2021/07/19 11:51:43;;;;;;;2.07;1.90;;;31.90;99.90;;;;;;4933030;29;20448;-69
2021/07/19 11:54:13;;;;;;;1.97;1.87;;;31.80;99.90;;;;;;4932484;29;20785;-71
2021/07/19 11:56:44;;;;;;;2.50;1.80;;;31.50;99.90;;;;;;4932438;29;20480;-72
2021/07/19 11:59:10;;;;;;;2.93;2.40;;;31.10;99.90;;;;;;4932317;29;20425;-70
2021/07/19 12:01:35;;;;;;;2.53;2.30;;;30.60;99.90;;;;;;4932769;29;20456;-70
2021/07/19 12:04:03;;;;;;;3.20;1.67;;;29.90;99.90;;;;;;4932724;29;20265;-71
2021/07/19 12:06:30;;;;;;;4.50;2.60;;;29.70;99.90;;;;;;4931953;29;20252;-70
2021/07/19 12:09:05;;;;;;;2.60;2.00;;;29.80;99.90;;;;;;4931518;29;20439;-70
2021/07/19 12:11:31;;;;;;;2.33;1.60;;;30.00;99.90;;;;;;4935439;29;20436;-72
2021/07/19 12:14:04;;;;;;;2.10;1.80;;;30.10;99.90;;;;;;4936203;29;20417;-70
2021/07/19 12:16:38;;;;;;;5.67;2.57;;;30.00;99.90;;;;;;4936522;29;21069;-70
2021/07/19 12:19:05;;;;;;;2.40;1.87;;;29.90;99.90;;;;;;4934624;29;21229;-69
2021/07/19 12:21:36;;;;;;;3.00;2.43;;;29.80;99.90;;;;;;4936724;29;20529;-70
2021/07/19 12:24:02;;;;;;;4.20;2.10;;;29.40;99.90;;;;;;4935401;29;20913;-72
2021/07/19 12:26:31;;;;;;;3.70;2.00;;;29.00;99.90;;;;;;4936394;29;20464;-71
2021/07/19 12:29:17;;;;;;;3.73;2.20;;;29.00;99.90;;;;;;4934578;29;20425;-75
2021/07/19 12:31:51;;;;;;;8.97;2.13;;;29.20;99.90;;;;;;4934999;29;20549;-73
2021/07/19 12:34:27;;;;;;;2.57;2.00;;;29.50;99.90;;;;;;4935051;29;20511;-72
2021/07/19 12:36:56;;;;;;;5.67;2.17;;;29.60;99.90;;;;;;4934157;29;20616;-73
2021/07/19 12:39:23;;;;;;;4.30;2.13;;;29.90;99.90;;;;;;4934003;29;20432;-73
2021/07/19 12:41:50;;;;;;;4.80;2.57;;;30.10;99.90;;;;;;4934984;29;20899;-76
2021/07/19 12:44:44;;;;;;;2.87;2.10;;;30.20;99.90;;;;;;4934494;29;20556;-74
2021/07/19 12:47:14;;;;;;;2.93;2.00;;;30.20;99.90;;;;;;4934322;29;20433;-74
2021/07/19 12:49:40;;;;;;;2.80;2.60;;;30.20;99.90;;;;;;4934872;29;20481;-73
2021/07/19 12:52:17;;;;;;;2.63;2.43;;;30.10;99.90;;;;;;4934220;29;20850;-74
2021/07/19 12:54:53;;;;;;;2.50;2.30;;;30.40;99.90;;;;;;4934196;29;20409;-73
2021/07/19 12:57:19;;;;;;;4.23;1.80;;;30.50;99.90;;;;;;4934134;29;20437;-74
2021/07/19 12:59:48;;;;;;;2.77;2.53;;;30.60;99.90;;;;;;4934672;29;20413;-75
2021/07/19 13:02:16;;;;;;;5.00;2.30;;;30.70;99.90;;;;;;4932869;29;20263;-73
2021/07/19 13:04:42;;;;;;;2.20;2.10;;;30.50;99.90;;;;;;4931934;29;20495;-73
2021/07/19 13:07:08;;;;;;;4.37;2.40;;;30.30;99.90;;;;;;4933656;29;20492;-72
2021/07/19 13:09:33;;;;;;;5.57;2.20;;;30.20;99.90;;;;;;4933142;29;20182;-74
2021/07/19 13:12:04;;;;;;;2.37;2.17;;;30.10;99.90;;;;;;4934202;29;20193;-75
2021/07/19 13:14:41;;;;;;;2.60;2.40;;;30.20;99.90;;;;;;4933392;29;20268;-72
2021/07/19 13:17:18;;;;;;;4.20;2.07;;;30.10;99.90;;;;;;4933786;29;20421;-74
2021/07/19 13:19:50;;;;;;;2.70;2.20;;;30.00;99.90;;;;;;4934863;29;20413;-72
2021/07/19 13:22:16;;;;;;;5.13;2.70;;;29.90;99.90;;;;;;4932372;29;21163;-73
2021/07/19 13:24:45;;;;;;;3.13;2.70;;;30.00;99.90;;;;;;4932827;29;20416;-74
2021/07/19 13:27:13;;;;;;;14.73;2.40;;;29.90;99.90;;;;;;4933275;29;20428;-75
2021/07/19 13:29:59;;;;;;;2.70;2.60;;;29.90;99.90;;;;;;4932378;29;20950;-72
2021/07/19 13:32:27;;;;;;;3.00;2.20;;;29.80;99.90;;;;;;4898887;29;1039325;-72
2021/07/19 13:35:15;;;;;;;2.40;2.20;;;29.70;99.90;;;;;;4933076;29;20394;-74
2021/07/19 13:37:49;;;;;;;4.97;3.10;;;29.70;99.90;;;;;;4934109;29;20903;-73
2021/07/19 13:40:16;;;;;;;7.73;2.67;;;29.70;99.90;;;;;;4934356;29;20432;-75
2021/07/19 13:42:47;;;;;;;3.20;2.90;;;29.50;99.90;;;;;;4934274;29;20532;-73
2021/07/19 13:45:23;;;;;;;3.30;2.40;;;29.20;99.90;;;;;;4934081;29;21065;-72
2021/07/19 13:47:50;;;;;;;2.60;2.40;;;29.00;99.90;;;;;;4934424;29;20432;-75
2021/07/19 13:50:16;;;;;;;4.43;2.40;;;29.10;99.90;;;;;;4934634;29;20430;-74
2021/07/19 13:52:42;;;;;;;3.50;2.50;;;29.20;99.90;;;;;;4934022;29;20448;-75
2021/07/19 13:55:09;;;;;;;2.80;2.60;;;29.10;99.90;;;;;;4934498;29;20661;-74
2021/07/19 13:57:35;;;;;;;6.73;2.87;;;28.90;99.90;;;;;;4933827;29;20423;-74
2021/07/19 14:00:00;;;;;;;2.33;1.93;;;28.60;99.90;;;;;;4933524;29;20417;-74
2021/07/19 14:02:26;;;;;;;2.53;2.30;;;28.40;99.90;;;;;;4934351;29;20737;-74
2021/07/19 14:04:51;;;;;;;4.20;2.43;;;28.30;99.90;;;;;;4933712;29;20292;-75
2021/07/19 14:07:18;;;;;;;4.17;2.87;;;28.10;99.90;;;;;;4933659;29;20178;-75
2021/07/19 14:09:43;;;;;;;2.73;2.53;;;27.90;99.90;;;;;;4932563;29;20173;-73
2021/07/19 14:12:10;;;;;;;4.80;3.30;;;27.90;99.90;;;;;;4933866;29;20460;-73
2021/07/19 14:14:36;;;;;;;7.73;3.10;;;27.80;99.90;;;;;;4933700;29;20174;-75
2021/07/19 14:17:02;;;;;;;2.77;2.60;;;27.70;99.90;;;;;;4934031;29;20424;-74
2021/07/19 14:19:28;;;;;;;3.07;2.60;;;27.70;99.90;;;;;;4933818;29;20268;-75
2021/07/19 14:21:54;;;;;;;2.77;2.33;;;27.50;99.90;;;;;;4933270;29;20521;-72
2021/07/19 14:24:22;;;;;;;4.63;2.83;;;27.50;99.90;;;;;;4932047;29;20189;-72
2021/07/19 14:26:48;;;;;;;3.70;2.50;;;27.50;99.90;;;;;;4933221;29;20197;-72
2021/07/19 14:29:14;;;;;;;5.43;2.93;;;27.70;99.90;;;;;;4932536;29;20428;-72
2021/07/19 14:31:40;;;;;;;2.83;2.53;;;27.60;99.90;;;;;;4931721;29;20868;-75
2021/07/19 14:34:05;;;;;;;8.63;3.50;;;27.60;99.90;;;;;;4931061;29;20553;-73
2021/07/19 14:36:31;;;;;;;3.07;2.23;;;27.60;99.90;;;;;;4933951;29;20264;-72
2021/07/19 14:38:56;;;;;;;3.47;2.03;;;27.70;99.90;;;;;;4933092;29;20193;-73
2021/07/19 14:41:22;;;;;;;4.23;2.40;;;27.80;99.90;;;;;;4933335;29;20197;-75
2021/07/19 14:43:48;;;;;;;6.30;2.90;;;27.80;99.90;;;;;;4932821;29;20184;-73
2021/07/19 14:46:14;;;;;;;2.50;2.10;;;28.00;99.90;;;;;;4934029;29;20678;-73
2021/07/19 14:48:40;;;;;;;2.90;2.70;;;28.00;99.90;;;;;;4933352;29;20413;-73
2021/07/19 14:51:09;;;;;;;2.80;2.37;;;28.10;99.90;;;;;;4933733;29;20437;-74
2021/07/19 14:53:35;;;;;;;2.43;2.23;;;28.10;99.90;;;;;;4932537;29;20409;-73
2021/07/19 14:56:01;;;;;;;3.90;3.10;;;28.00;99.90;;;;;;4933039;29;20470;-75
2021/07/19 14:58:27;;;;;;;3.67;3.47;;;28.00;99.90;;;;;;4933139;29;20429;-75
2021/07/19 15:00:52;;;;;;;5.60;2.40;;;28.20;99.90;;;;;;4931669;29;20450;-75
2021/07/19 15:03:18;;;;;;;7.27;2.80;;;28.20;99.90;;;;;;4932800;29;20193;-72
2021/07/19 15:05:43;;;;;;;3.90;3.50;;;28.10;99.90;;;;;;4933345;29;20248;-72
2021/07/19 15:08:09;;;;;;;5.63;2.77;;;28.00;99.90;;;;;;4932906;29;20188;-72
2021/07/19 15:10:35;;;;;;;8.10;3.10;;;28.00;99.90;;;;;;4932542;29;20177;-72
2021/07/19 15:13:00;;;;;;;5.43;3.20;;;28.00;99.90;;;;;;4932654;29;20643;-75
2021/07/19 15:15:27;;;;;;;4.37;2.53;;;28.10;99.90;;;;;;4933211;29;20268;-74
2021/07/19 15:17:53;;;;;;;3.60;3.33;;;28.10;99.90;;;;;;4931568;29;20276;-73
2021/07/19 15:20:19;;;;;;;3.57;2.90;;;28.00;99.90;;;;;;4932627;29;20516;-72
2021/07/19 15:22:44;;;;;;;3.20;3.00;;;28.00;99.90;;;;;;4932397;29;20216;-72
2021/07/19 15:25:11;;;;;;;3.90;3.47;;;28.00;99.90;;;;;;4933409;29;20697;-72
2021/07/19 15:27:39;;;;;;;3.20;3.00;;;28.00;99.90;;;;;;4932703;29;20169;-71
2021/07/19 15:30:07;;;;;;;10.63;3.67;;;28.00;99.90;;;;;;4932322;29;20586;-74
2021/07/19 15:32:33;;;;;;;4.07;2.93;;;28.10;99.90;;;;;;4932622;29;20456;-73
2021/07/19 15:34:59;;;;;;;3.70;3.40;;;28.20;99.90;;;;;;4932661;29;20653;-71
2021/07/19 15:37:24;;;;;;;4.13;3.83;;;28.10;99.90;;;;;;4932575;29;20213;-72
2021/07/19 15:39:50;;;;;;;4.20;3.83;;;28.10;99.90;;;;;;4932817;29;20182;-74
2021/07/19 15:42:16;;;;;;;5.13;4.10;;;28.10;99.90;;;;;;4932755;29;20205;-72
2021/07/19 15:44:41;;;;;;;6.13;3.03;;;28.10;99.90;;;;;;4932668;29;20177;-72
2021/07/19 15:47:07;;;;;;;4.23;3.87;;;28.00;99.90;;;;;;4936412;29;20425;-73
2021/07/19 15:49:33;;;;;;;9.60;3.80;;;27.90;99.90;;;;;;4936590;29;20200;-74
2021/07/19 15:51:59;;;;;;;4.50;3.30;;;27.80;99.90;;;;;;4933623;29;20380;-75
2021/07/19 15:54:24;;;;;;;4.70;3.33;;;27.70;99.90;;;;;;4933991;29;20191;-75
2021/07/19 15:56:50;;;;;;;3.60;3.30;;;27.60;99.90;;;;;;4936399;29;20209;-73
2021/07/19 15:59:15;;;;;;;11.33;4.50;;;27.80;99.90;;;;;;4934428;29;20228;-73
2021/07/19 16:01:41;;;;;;;5.50;3.43;;;27.70;99.90;;;;;;4936173;29;20205;-76
2021/07/19 16:04:06;;;;;;;3.43;3.13;;;27.70;99.90;;;;;;4935677;29;20195;-75
2021/07/19 16:06:32;;;;;;;8.27;4.20;;;27.70;99.90;;;;;;4932821;29;20581;-74
2021/07/19 16:08:57;;;;;;;13.30;4.20;;;27.60;99.90;;;;;;4931322;29;20177;-75
2021/07/19 16:11:23;;;;;;;3.50;3.27;;;27.70;99.90;;;;;;4931934;29;20276;-73
2021/07/19 16:13:49;;;;;;;4.60;4.00;;;27.60;99.90;;;;;;4931907;29;20188;-73
2021/07/19 16:16:15;;;;;;;3.60;3.30;;;27.50;99.90;;;;;;4930879;29;20892;-72
2021/07/19 16:18:41;;;;;;;7.93;4.37;;;27.30;99.90;;;;;;4931333;29;20212;-72
2021/07/19 16:21:08;;;;;;;4.80;3.50;;;27.20;99.90;;;;;;4932737;29;20515;-72
2021/07/19 16:23:33;;;;;;;4.60;4.30;;;27.30;99.90;;;;;;4930815;29;20452;-73
2021/07/19 16:25:59;;;;;;;6.23;3.93;;;27.30;99.90;;;;;;4930518;29;20491;-73
2021/07/19 16:28:25;;;;;;;4.73;3.47;;;27.30;99.90;;;;;;4932424;29;20182;-75
2021/07/19 16:30:53;;;;;;;4.30;3.77;;;27.30;99.90;;;;;;4935259;29;20185;-74
2021/07/19 16:33:19;;;;;;;4.23;3.30;;;27.30;99.90;;;;;;4932876;29;20177;-73
2021/07/19 16:35:44;;;;;;;6.97;4.00;;;27.20;99.90;;;;;;4934800;29;20413;-74
2021/07/19 16:38:10;;;;;;;4.17;3.77;;;27.10;99.90;;;;;;4933388;29;20192;-73
2021/07/19 16:40:35;;;;;;;8.70;5.00;;;27.10;99.90;;;;;;4933808;29;20181;-72
2021/07/19 16:43:01;;;;;;;5.70;4.17;;;27.00;99.90;;;;;;4934126;29;20248;-73
2021/07/19 16:47:53;;;;;;;10.30;4.20;;;26.80;99.90;;;;;;4935100;29;20209;-72
2021/07/19 16:50:20;;;;;;;9.70;4.10;;;26.70;99.90;;;;;;4935502;29;20217;-72
2021/07/19 16:52:46;;;;;;;5.93;3.50;;;26.70;99.90;;;;;;4935331;29;20456;-72
2021/07/19 16:55:12;;;;;;;6.17;4.10;;;26.60;99.90;;;;;;4935784;29;20468;-72
2021/07/19 16:57:38;;;;;;;6.57;4.50;;;26.50;99.90;;;;;;4934366;29;20479;-72
2021/07/19 17:00:09;;;;;;;5.03;4.17;;;26.50;99.90;;;;;;4935384;29;20417;-72
2021/07/19 17:02:36;;;;;;;11.13;4.57;;;26.50;99.90;;;;;;4934637;29;20280;-74
2021/07/19 17:05:10;;;;;;;12.37;4.67;;;26.40;99.90;;;;;;4934919;29;20465;-71
2021/07/19 17:07:35;;;;;;;6.33;4.63;;;26.30;99.90;;;;;;4931463;29;20465;-71
2021/07/19 17:10:01;;;;;;;10.23;6.00;;;26.30;99.90;;;;;;4934879;29;20520;-71
2021/07/19 17:12:27;;;;;;;8.63;5.20;;;26.20;99.90;;;;;;4935231;29;20252;-71
2021/07/19 17:14:53;;;;;;;7.07;4.80;;;26.20;99.90;;;;;;4934050;29;20862;-71
2021/07/19 17:17:19;;;;;;;8.23;6.10;;;26.10;99.90;;;;;;4934719;29;20515;-70
2021/07/19 17:19:44;;;;;;;7.30;5.10;;;26.00;99.90;;;;;;4934123;29;20228;-71
2021/07/19 17:22:10;;;;;;;8.33;5.00;;;26.00;99.90;;;;;;4934318;29;20429;-72